Latest Weather Observations for Bushy Park

IDT60901

Issued at 7:05 pm EDT Monday 20 October 2014 (issued every 10 minutes, with the page automatically refreshed every 10 minutes)

About weather observations | Map of Hobart area stations | Latest observations for Hobart area | Other Formats
Station Details ID: 095003 Name: BUSHY PARK (BUSHY PARK ESTATES) Lat: -42.71 Lon: 146.90 Height: 27.0 m
Data from the previous 72 hours. | See also: Recent months at Bushy Park
Date/Time
EDT
Tmp

°C
App
Tmp
°C
Dew
Point
°C
Rel
Hum
%
Delta-T

°C
Wind Press
QNH
hPa
Press
MSL
hPa
Rain
since
9 am
mm
Dir
 
Spd
km/h
Gust
km/h
Spd
kts
Gust
kts
20/07:00pm 13.0 7.9 2.9 50 4.5 SSE 19 26 10 14 - - 0.0
20/06:30pm 14.2 8.4 2.3 44 5.2 S 22 30 12 16 - - 0.0
20/06:00pm 15.3 9.9 2.4 42 5.8 SSE 20 26 11 14 - - 0.0
20/05:30pm 16.3 13.4 1.2 36 6.6 S 6 7 3 4 - - 0.0
20/05:00pm 16.5 13.4 1.2 35 6.7 N 7 9 4 5 - - 0.0
20/04:30pm 16.2 12.8 1.7 37 6.4 SSW 9 11 5 6 - - 0.0
20/04:00pm 15.8 11.9 1.3 37 6.3 N 11 13 6 7 - - 0.0
20/03:30pm 15.6 12.2 2.0 40 6.0 NNE 9 13 5 7 - - 0.0
20/03:00pm 15.3 11.6 2.4 42 5.8 NNE 11 15 6 8 - - 0.0
20/02:30pm 14.9 10.4 2.4 43 5.6 E 15 20 8 11 - - 0.0
20/02:00pm 13.8 9.2 1.4 43 5.3 N 15 24 8 13 - - 0.0
20/01:30pm 14.8 9.7 2.9 44 5.3 NNE 19 26 10 14 - - 0.0
20/01:00pm 13.3 9.0 1.3 44 5.1 SE 13 19 7 10 - - 0.0
20/12:30pm 13.4 9.5 1.1 43 5.2 N 11 17 6 9 - - 0.0
20/12:00pm 11.7 7.8 1.1 48 4.4 N 11 15 6 8 - - 0.0
20/11:30am 11.7 7.7 0.8 47 4.5 ENE 11 17 6 9 - - 0.0
20/11:00am 11.7 8.4 2.3 52 4.1 NNE 9 15 5 8 - - 0.0
20/10:30am 10.5 6.3 1.5 53 3.8 NNE 13 19 7 10 - - 0.0
20/10:00am 10.3 7.0 2.4 58 3.4 NE 9 11 5 6 - - 0.0
20/09:30am 9.1 6.3 2.3 62 2.9 NE 6 9 3 5 - - 0.0
20/09:00am 7.9 5.2 2.7 69 2.2 W 6 11 3 6 - - 0.8
20/08:30am 6.6 3.7 2.8 77 1.6 NNE 7 11 4 6 - - 0.8
20/08:00am 4.7 1.3 1.7 81 1.2 N 9 13 5 7 - - 0.8
20/07:30am 2.9 -0.6 1.1 88 0.7 NNW 9 13 5 7 - - 0.8
20/07:00am 1.9 -1.3 0.8 92 0.4 N 7 9 4 5 - - 0.8
20/06:30am 0.9 -2.2 0.1 94 0.3 W 6 11 3 6 - - 0.8
20/06:00am 0.7 -2.5 -0.3 93 0.4 NW 6 9 3 5 - - 0.8
20/05:30am 0.7 - - - - NNW 7 9 4 5 - - 0.8
20/05:00am 0.9 -1.1 0.1 94 0.3 CALM 0 6 0 3 - - 0.8
20/04:30am 1.3 -2.4 0.2 92 0.4 N 9 13 5 7 - - 0.8
20/04:00am 1.3 -1.8 0.2 92 0.4 ENE 6 9 3 5 - - 0.8
20/03:30am 2.0 -1.6 0.7 91 0.5 N 9 13 5 7 - - 0.8
20/03:00am 2.5 -0.5 0.9 89 0.6 N 6 9 3 5 - - 0.8
20/02:30am 1.9 -1.7 0.6 91 0.5 W 9 15 5 8 - - 0.8
20/02:00am 2.8 -0.7 1.3 90 0.6 NNE 9 13 5 7 - - 0.8
20/01:30am 2.7 -0.8 1.1 89 0.6 WSW 9 11 5 6 - - 0.8
20/01:00am 4.3 1.3 1.8 84 1.0 N 7 11 4 6 - - 0.8
20/12:30am 5.2 1.1 2.0 80 1.3 WSW 13 19 7 10 - - 0.8
20/12:00am 5.2 1.2 3.0 86 0.9 WSW 13 15 7 8 - - 0.8
 
Date/Time
EDT
Tmp

°C
App
Tmp
°C
Dew
Point
°C
Rel
Hum
%
Delta-T

°C
Wind Press
QNH
hPa
Press
MSL
hPa
Rain
since
9 am
mm
Dir
 
Spd
km/h
Gust
km/h
Spd
kts
Gust
kts
19/11:30pm 4.3 2.0 2.6 89 0.7 N 4 9 2 5 - - 0.8
19/11:00pm 4.5 1.2 2.3 86 0.9 WSW 9 11 5 6 - - 0.8
19/10:30pm 5.8 2.2 3.2 83 1.1 W 11 19 6 10 - - 0.8
19/10:00pm 6.5 2.5 2.7 77 1.6 W 13 19 7 10 - - 0.6
19/09:30pm 6.3 3.2 3.7 83 1.1 NW 9 13 5 7 - - 0.6
19/09:00pm 7.8 4.2 3.1 72 2.0 W 11 17 6 9 - - 0.6
19/08:30pm 7.1 4.5 4.4 83 1.2 NNW 7 9 4 5 - - 0.6
19/08:00pm 8.5 3.9 3.7 72 2.1 SW 17 32 9 17 - - 0.6
19/07:30pm 9.4 6.1 4.5 71 2.2 W 11 17 6 9 - - 0.6
19/07:00pm 9.2 5.8 5.7 79 1.6 W 13 28 7 15 - - 0.6
19/06:30pm 9.6 7.2 7.1 84 1.2 W 9 15 5 8 - - 0.6
19/06:00pm 10.2 7.8 7.1 81 1.5 W 9 11 5 6 - - 0.0
19/05:30pm 10.3 7.8 6.5 77 1.8 W 9 13 5 7 - - 0.0
19/05:00pm 10.5 6.9 5.0 69 2.5 WSW 13 26 7 14 - - 0.0
19/04:30pm 10.6 5.2 4.7 67 2.7 WSW 22 37 12 20 - - 0.0
19/04:00pm 10.6 5.9 5.2 69 2.5 WSW 19 39 10 21 - - 0.0
19/03:43pm 10.9 4.6 5.5 69 2.5 SW 28 46 15 25 - - 0.0
19/03:30pm 11.3 5.8 5.8 69 2.6 SW 24 37 13 20 - - 0.0
19/03:00pm 13.6 11.0 7.8 68 2.9 W 11 19 6 10 - - 0.0
19/02:30pm 13.9 10.1 7.7 66 3.1 W 17 32 9 17 - - 0.0
19/02:00pm 14.2 11.0 6.9 61 3.6 NW 13 19 7 10 - - 0.0
19/01:30pm 14.0 11.0 7.8 66 3.1 WNW 13 19 7 10 - - 0.0
19/01:00pm 15.7 10.7 6.3 53 4.6 WSW 22 35 12 19 - - 0.0
19/12:32pm 16.4 10.8 8.7 60 3.9 WSW 28 46 15 25 - - 0.0
19/12:30pm 16.6 11.3 8.4 58 4.2 WSW 26 46 14 25 - - 0.0
19/12:00pm 17.9 13.4 7.0 49 5.5 W 20 41 11 22 - - 0.0
19/11:30am 17.9 14.1 6.0 45 5.8 WSW 15 30 8 16 - - 0.0
19/11:00am 17.5 15.1 7.2 51 5.2 WNW 9 17 5 9 - - 0.0
19/10:30am 16.8 14.1 7.5 54 4.7 WNW 11 24 6 13 - - 0.0
19/10:00am 16.5 13.0 7.4 55 4.5 WNW 15 26 8 14 - - 0.0
19/09:30am 17.1 15.2 7.4 53 4.9 N 7 17 4 9 - - 0.0
19/09:00am 17.1 15.6 9.3 60 4.1 WNW 7 11 4 6 - - 0.0
19/08:30am 14.4 13.7 8.5 67 3.0 NE 2 9 1 5 - - 0.0
19/08:00am 14.1 12.9 7.9 66 3.1 E 4 9 2 5 - - 0.0
19/07:30am 11.0 9.7 7.5 79 1.7 ENE 4 9 2 5 - - 0.0
19/07:00am 10.9 8.8 6.7 75 2.0 NNW 7 15 4 8 - - 0.0
19/06:30am 10.0 7.4 6.2 77 1.8 WNW 9 15 5 8 - - 0.0
19/06:00am 10.6 8.4 6.1 74 2.1 W 7 9 4 5 - - 0.0
19/05:30am 11.7 8.7 6.0 68 2.7 NW 11 15 6 8 - - 0.0
19/05:00am 12.7 10.1 6.2 64 3.1 SSW 9 13 5 7 - - 0.0
19/04:30am 12.2 8.8 6.1 66 2.9 S 13 20 7 11 - - 0.0
19/04:00am 12.9 10.4 6.5 65 3.1 S 9 15 5 8 - - 0.0
19/03:30am 13.9 11.7 6.0 59 3.8 ENE 7 13 4 7 - - 0.0
19/03:00am 14.2 11.5 5.6 56 4.1 S 9 17 5 9 - - 0.0
19/02:30am 16.6 12.4 3.8 42 5.9 S 15 24 8 13 - - 0.0
19/02:00am 12.3 9.4 6.5 67 2.8 SSE 11 15 6 8 - - 0.0
19/01:30am 11.4 9.1 7.3 76 2.0 SSW 9 17 5 9 - - 0.0
19/01:00am 11.6 9.8 7.9 78 1.8 S 7 11 4 6 - - 0.0
19/12:30am 12.5 11.3 7.9 73 2.3 NE 4 9 2 5 - - 0.0
19/12:00am 12.6 10.7 7.5 71 2.5 ENE 7 11 4 6 - - 0.0
 
Date/Time
EDT
Tmp

°C
App
Tmp
°C
Dew
Point
°C
Rel
Hum
%
Delta-T

°C
Wind Press
QNH
hPa
Press
MSL
hPa
Rain
since
9 am
mm
Dir
 
Spd
km/h
Gust
km/h
Spd
kts
Gust
kts
18/11:30pm 13.6 11.6 7.3 65 3.1 SW 7 9 4 5 - - 0.0
18/11:00pm 14.8 11.8 7.6 62 3.6 N 13 17 7 9 - - 0.0
18/10:30pm 15.2 10.9 6.9 57 4.1 NNW 19 24 10 13 - - 0.0
18/10:00pm 15.2 11.0 7.6 60 3.8 NNW 19 24 10 13 - - 0.0
18/09:30pm 15.4 11.6 7.4 59 4.0 N 17 24 9 13 - - 0.0
18/09:00pm 15.6 13.5 8.1 61 3.8 NNW 9 9 5 5 - - 0.0
18/08:30pm 15.9 12.8 8.9 63 3.6 NNW 15 19 8 10 - - 0.0
18/08:00pm 16.5 14.3 7.8 56 4.4 SW 9 11 5 6 - - 0.0
18/07:30pm 17.9 14.0 7.0 49 5.5 N 17 24 9 13 - - 0.0
18/07:00pm 18.7 13.6 5.8 42 6.3 N 22 30 12 16 - - 0.0
18/06:30pm 19.0 14.8 7.3 46 5.9 N 19 33 10 18 - - 0.0
18/06:00pm 19.6 15.0 6.3 42 6.6 NW 20 32 11 17 - - 0.0
18/05:30pm 20.8 14.5 3.6 32 8.2 NW 26 44 14 24 - - 0.0
18/05:00pm 21.0 16.3 5.1 35 7.8 N 19 26 10 14 - - 0.0
18/04:30pm 21.3 17.1 5.6 36 7.8 N 17 24 9 13 - - 0.0
18/04:00pm 21.1 15.3 4.4 33 8.1 NNW 24 33 13 18 - - 0.0
18/03:30pm 19.5 14.8 5.0 38 7.1 NNW 19 26 10 14 - - 0.0
18/03:00pm 19.9 15.5 4.5 36 7.4 N 17 24 9 13 - - 0.0
18/02:30pm 20.0 15.5 4.4 35 7.5 NNW 17 28 9 15 - - 0.0
18/02:00pm 20.2 16.3 5.3 37 7.3 N 15 28 8 15 - - 0.0
18/01:30pm 20.8 16.5 5.4 36 7.6 NNW 17 26 9 14 - - 0.0
18/01:00pm 20.0 17.6 7.1 43 6.6 N 9 13 5 7 - - 0.0
18/12:30pm 18.3 16.5 7.8 50 5.4 SSE 7 13 4 7 - - 0.0
18/12:00pm 17.1 14.9 6.4 49 5.3 ESE 7 9 4 5 - - 0.0
18/11:30am 17.0 14.5 6.5 50 5.2 NNW 9 13 5 7 - - 0.0
18/11:00am 15.9 13.9 6.1 52 4.7 NNW 6 11 3 6 - - 0.0
18/10:30am 13.3 10.6 5.7 60 3.6 NW 9 13 5 7 - - 0.0
18/10:00am 12.9 10.7 5.5 60 3.5 SE 6 9 3 5 - - 0.0
18/09:30am 12.0 9.3 5.6 65 3.0 NE 9 11 5 6 - - 0.0
18/09:00am 10.6 8.2 5.4 70 2.4 NNE 7 9 4 5 - - 0.2
18/08:30am 9.0 6.3 5.5 79 1.6 N 9 11 5 6 - - 0.2
18/08:00am 7.1 5.9 4.8 85 1.0 CALM 0 0 0 0 - - 0.2
18/07:30am 6.9 5.8 4.9 87 0.9 CALM 0 0 0 0 - - 0.2
18/07:00am 6.5 5.4 4.9 89 0.7 CALM 0 0 0 0 - - 0.2
18/06:30am 6.0 4.8 4.4 89 0.7 CALM 0 2 0 1 - - 0.2
18/06:00am 6.1 4.9 4.5 89 0.7 CALM 0 0 0 0 - - 0.2
18/05:30am 6.4 3.9 4.8 89 0.7 S 7 9 4 5 - - 0.2
18/05:00am 6.6 5.3 4.3 85 1.0 CALM 0 0 0 0 - - 0.2
18/04:30am 6.3 3.7 4.2 86 0.9 NW 7 11 4 6 - - 0.2
18/04:00am 6.1 4.8 4.3 88 0.8 CALM 0 2 0 1 - - 0.2
18/03:30am 6.3 3.9 4.5 88 0.8 NNW 6 7 3 4 - - 0.2
18/03:00am 6.3 4.6 4.2 86 0.9 W 2 7 1 4 - - 0.2
18/02:30am 7.6 5.7 4.9 83 1.2 W 4 6 2 3 - - 0.2
18/02:00am 8.8 7.7 5.3 79 1.6 CALM 0 0 0 0 - - 0.2
18/01:30am 9.5 8.1 5.6 76 1.8 ESE 2 7 1 4 - - 0.2
18/01:00am 9.8 8.3 5.0 72 2.2 ESE 2 7 1 4 - - 0.2
18/12:30am 10.3 7.3 4.0 65 2.8 S 9 15 5 8 - - 0.2
18/12:00am 10.3 6.1 4.0 65 2.8 SSE 15 19 8 10 - - 0.2
 
Date/Time
EDT
Tmp

°C
App
Tmp
°C
Dew
Point
°C
Rel
Hum
%
Delta-T

°C
Wind Press
QNH
hPa
Press
MSL
hPa
Rain
since
9 am
mm
Dir
 
Spd
km/h
Gust
km/h
Spd
kts
Gust
kts
17/11:30pm 10.3 6.2 4.3 66 2.7 S 15 20 8 11 - - 0.2
17/11:00pm 9.9 6.2 4.3 68 2.5 SSE 13 24 7 13 - - 0.2
17/10:30pm 10.3 6.1 3.8 64 2.9 SSE 15 24 8 13 - - 0.2
17/10:00pm 10.2 5.5 3.4 62 3.0 SSE 17 24 9 13 - - 0.2
17/09:30pm 10.6 5.4 3.4 61 3.2 SSE 20 30 11 16 - - 0.2
17/09:00pm 10.8 5.5 3.1 59 3.4 SSE 20 30 11 16 - - 0.2
17/08:30pm 11.1 5.1 3.2 58 3.5 SSE 24 35 13 19 - - 0.2
17/08:00pm 11.6 5.2 3.0 55 3.8 SSE 26 33 14 18 - - 0.2
17/07:30pm 12.3 5.4 2.8 52 4.2 SSE 28 39 15 21 - - 0.2

Latest Capital City Observations: Canberra | Sydney | Melbourne | Brisbane | Adelaide | Perth | Hobart | Darwin

Other Formats:

Comma delimited format used in spreadsheet applications
http://www.bom.gov.au/fwo/IDT60901/IDT60901.94964.axf

JavaScript Object Notation format (JSON) in row-major order
http://www.bom.gov.au/fwo/IDT60901/IDT60901.94964.json